Time;durP1;ratioP1;P1;durP2;ratioP2;P2;SDS_P1;SDS_P2;PMS_P1;PMS_P2;Temp;Humidity;BMP_temperature;BMP_pressure;BME280_temperature;BME280_humidity;BME280_pressure;Samples;Min_cycle;Max_cycle;Signal;HPM_P1;HPM_P2
2023/03/03 00:02:26;;;;;;;172.20;58.63;;;;;;;;;;5035748;28;20037;-55
2023/03/03 00:04:53;;;;;;;184.57;61.08;;;;;;;;;;5033249;28;20037;-57
2023/03/03 00:07:21;;;;;;;169.50;56.25;;;;;;;;;;5039942;28;20055;-59
2023/03/03 00:09:48;;;;;;;199.68;58.33;;;;;;;;;;5039276;28;20060;-57
2023/03/03 00:12:28;;;;;;;174.57;58.60;;;;;;;;;;5035557;28;20044;-55
2023/03/03 00:14:57;;;;;;;155.82;54.25;;;;;;;;;;5034844;28;20517;-57
2023/03/03 00:17:27;;;;;;;177.20;54.45;;;;;;;;;;5036922;28;20405;-56
2023/03/03 00:19:54;;;;;;;221.20;55.30;;;;;;;;;;5037018;28;20049;-43
2023/03/03 00:22:39;;;;;;;183.70;54.53;;;;;;;;;;5034254;28;20445;-43
2023/03/03 00:25:24;;;;;;;155.77;49.92;;;;;;;;;;5037963;28;20077;-43
2023/03/03 00:27:50;;;;;;;192.43;50.42;;;;;;;;;;5036065;28;20068;-43
2023/03/03 00:30:26;;;;;;;228.23;57.00;;;;;;;;;;5036595;28;20045;-43
2023/03/03 00:32:54;;;;;;;155.63;50.08;;;;;;;;;;5034435;28;20121;-42
2023/03/03 00:35:21;;;;;;;154.88;47.20;;;;;;;;;;5035606;28;20418;-43
2023/03/03 00:37:49;;;;;;;146.18;48.67;;;;;;;;;;5038059;28;20099;-43
2023/03/03 00:40:22;;;;;;;143.73;47.03;;;;;;;;;;5033903;28;20052;-45
2023/03/03 00:42:53;;;;;;;148.27;47.70;;;;;;;;;;5039607;28;20397;-43
2023/03/03 00:45:30;;;;;;;122.95;43.65;;;;;;;;;;5037839;28;20037;-42
2023/03/03 00:47:57;;;;;;;155.48;48.17;;;;;;;;;;5050040;28;20707;-44
2023/03/03 00:50:28;;;;;;;131.45;47.33;;;;;;;;;;5040389;28;20075;-43
2023/03/03 00:53:06;;;;;;;142.10;46.13;;;;;;;;;;5037363;28;20111;-43
2023/03/03 00:55:33;;;;;;;129.10;45.92;;;;;;;;;;5038048;28;20037;-43
2023/03/03 00:57:59;;;;;;;155.43;46.10;;;;;;;;;;5037315;28;20049;-43
2023/03/03 01:00:31;;;;;;;148.18;44.65;;;;;;;;;;5038135;28;20148;-43
2023/03/03 01:03:02;;;;;;;145.02;45.42;;;;;;;;;;5038247;28;20044;-43
2023/03/03 01:05:28;;;;;;;119.20;42.78;;;;;;;;;;5038119;28;20114;-43
2023/03/03 01:07:55;;;;;;;141.73;44.15;;;;;;;;;;5038566;28;20050;-43
2023/03/03 01:10:22;;;;;;;150.73;45.17;;;;;;;;;;5038879;28;20083;-43
2023/03/03 01:12:48;;;;;;;139.38;44.25;;;;;;;;;;5032966;28;20038;-43
2023/03/03 01:15:15;;;;;;;141.90;43.03;;;;;;;;;;5040558;28;20045;-44
2023/03/03 01:17:42;;;;;;;147.55;43.47;;;;;;;;;;5037485;28;20099;-44
2023/03/03 01:20:09;;;;;;;125.72;42.92;;;;;;;;;;5035708;28;20550;-43
2023/03/03 01:22:36;;;;;;;132.68;40.95;;;;;;;;;;5040598;28;20048;-42
2023/03/03 01:25:02;;;;;;;124.65;40.78;;;;;;;;;;5038114;28;21261;-43
2023/03/03 01:27:30;;;;;;;111.75;39.97;;;;;;;;;;5038585;28;20395;-43
2023/03/03 01:29:56;;;;;;;139.43;44.28;;;;;;;;;;5036298;28;20116;-43
2023/03/03 01:32:23;;;;;;;131.02;43.70;;;;;;;;;;5038855;28;20041;-43
2023/03/03 01:34:50;;;;;;;132.80;42.17;;;;;;;;;;5038679;28;20128;-43
2023/03/03 01:37:16;;;;;;;137.57;42.47;;;;;;;;;;5037908;28;20041;-43
2023/03/03 01:39:46;;;;;;;152.00;43.03;;;;;;;;;;5029024;28;20402;-58
2023/03/03 01:42:14;;;;;;;141.50;47.35;;;;;;;;;;5039287;28;20068;-57
2023/03/03 01:44:42;;;;;;;148.27;44.13;;;;;;;;;;5038415;28;20588;-56
2023/03/03 01:47:11;;;;;;;131.55;42.42;;;;;;;;;;5037012;28;20045;-59
2023/03/03 01:49:49;;;;;;;115.70;40.03;;;;;;;;;;5019511;28;20045;-56
2023/03/03 01:52:26;;;;;;;128.85;42.63;;;;;;;;;;5043034;28;20049;-56
2023/03/03 01:54:56;;;;;;;133.32;42.00;;;;;;;;;;5038484;28;20057;-54
2023/03/03 01:57:25;;;;;;;117.60;40.28;;;;;;;;;;5043882;28;20052;-57
2023/03/03 01:59:52;;;;;;;120.85;41.47;;;;;;;;;;5041034;28;20088;-58
2023/03/03 02:02:19;;;;;;;135.20;42.38;;;;;;;;;;5037038;28;20037;-57
2023/03/03 02:04:45;;;;;;;139.00;42.40;;;;;;;;;;5043222;28;20049;-54
2023/03/03 02:07:12;;;;;;;119.05;41.17;;;;;;;;;;5054147;28;20032;-56
2023/03/03 02:09:50;;;;;;;117.20;43.35;;;;;;;;;;5040146;28;20145;-59
2023/03/03 02:12:17;;;;;;;138.10;43.30;;;;;;;;;;5038186;28;20060;-58
2023/03/03 02:14:44;;;;;;;119.78;42.22;;;;;;;;;;5042575;28;20091;-57
2023/03/03 02:17:11;;;;;;;137.13;43.17;;;;;;;;;;5041140;28;20036;-57
2023/03/03 02:19:44;;;;;;;112.07;42.30;;;;;;;;;;5040233;28;20034;-56
2023/03/03 02:22:11;;;;;;;137.05;43.22;;;;;;;;;;5039470;28;20057;-55
2023/03/03 02:25:09;;;;;;;140.75;44.85;;;;;;;;;;5056385;28;20048;-59
2023/03/03 02:27:36;;;;;;;128.07;42.92;;;;;;;;;;5051109;28;20075;-57
2023/03/03 02:30:10;;;;;;;112.38;40.58;;;;;;;;;;5042784;28;20045;-57
2023/03/03 02:32:37;;;;;;;121.50;41.38;;;;;;;;;;5020211;28;20407;-59
2023/03/03 02:35:24;;;;;;;139.30;42.67;;;;;;;;;;5021589;28;20540;-56
2023/03/03 02:37:52;;;;;;;144.38;44.47;;;;;;;;;;5036217;28;20512;-52
2023/03/03 02:40:20;;;;;;;150.13;45.22;;;;;;;;;;5041579;28;20051;-53
2023/03/03 02:42:49;;;;;;;172.27;46.65;;;;;;;;;;5031324;28;20033;-43
2023/03/03 02:45:16;;;;;;;115.25;41.30;;;;;;;;;;5049785;28;20046;-43
2023/03/03 02:47:48;;;;;;;173.02;46.78;;;;;;;;;;5042392;28;20594;-44
2023/03/03 02:50:14;;;;;;;136.43;44.38;;;;;;;;;;5040193;28;20049;-43
2023/03/03 02:52:41;;;;;;;124.10;42.83;;;;;;;;;;5040827;28;20049;-43
2023/03/03 02:55:08;;;;;;;161.50;46.17;;;;;;;;;;5040261;28;20045;-45
2023/03/03 02:57:34;;;;;;;134.52;43.83;;;;;;;;;;5041286;28;20047;-45
2023/03/03 03:00:01;;;;;;;141.90;44.25;;;;;;;;;;5040658;28;20640;-45
2023/03/03 03:02:28;;;;;;;144.27;46.15;;;;;;;;;;5041692;28;20037;-43
2023/03/03 03:04:54;;;;;;;130.55;44.03;;;;;;;;;;5056035;28;20450;-44
2023/03/03 03:07:22;;;;;;;134.85;48.05;;;;;;;;;;5040215;28;20029;-44
2023/03/03 03:09:49;;;;;;;185.80;50.35;;;;;;;;;;5036198;28;20042;-45
2023/03/03 03:12:18;;;;;;;145.98;44.13;;;;;;;;;;5038955;28;20046;-45
2023/03/03 03:14:46;;;;;;;169.35;49.92;;;;;;;;;;5039224;28;20586;-44
2023/03/03 03:17:13;;;;;;;158.57;49.40;;;;;;;;;;5036186;28;20129;-43
2023/03/03 03:19:41;;;;;;;156.98;47.90;;;;;;;;;;5042783;28;20041;-43
2023/03/03 03:22:10;;;;;;;160.88;47.63;;;;;;;;;;5039523;28;20057;-43
2023/03/03 03:24:36;;;;;;;170.80;48.83;;;;;;;;;;5038717;28;20441;-44
2023/03/03 03:27:07;;;;;;;137.77;46.97;;;;;;;;;;5040382;28;20037;-44
2023/03/03 03:29:34;;;;;;;141.82;46.30;;;;;;;;;;5038571;28;20038;-43
2023/03/03 03:32:02;;;;;;;152.88;46.08;;;;;;;;;;5023531;28;20501;-44
2023/03/03 03:34:30;;;;;;;139.00;47.25;;;;;;;;;;5039052;28;20049;-43
2023/03/03 03:36:57;;;;;;;160.60;46.33;;;;;;;;;;5054388;28;20087;-43
2023/03/03 03:39:25;;;;;;;140.68;42.53;;;;;;;;;;5039348;28;20140;-43
2023/03/03 03:41:52;;;;;;;168.10;47.45;;;;;;;;;;5039280;28;20044;-44
2023/03/03 03:44:20;;;;;;;151.50;45.08;;;;;;;;;;5036821;28;20045;-56
2023/03/03 03:46:46;;;;;;;149.30;47.03;;;;;;;;;;5039736;28;20037;-52
2023/03/03 03:49:14;;;;;;;151.32;48.47;;;;;;;;;;5038046;28;20041;-57
2023/03/03 03:51:40;;;;;;;151.75;46.40;;;;;;;;;;5037572;28;20098;-57
2023/03/03 03:54:10;;;;;;;159.45;49.38;;;;;;;;;;5052906;28;20072;-57
2023/03/03 03:56:38;;;;;;;134.38;48.60;;;;;;;;;;5039260;28;20045;-56
2023/03/03 03:59:05;;;;;;;149.43;49.83;;;;;;;;;;5040073;28;20045;-56
2023/03/03 04:01:32;;;;;;;145.70;46.63;;;;;;;;;;5038885;28;20044;-52
2023/03/03 04:03:58;;;;;;;177.52;51.30;;;;;;;;;;5038248;28;20052;-55
2023/03/03 04:06:25;;;;;;;145.90;47.33;;;;;;;;;;5038991;28;20107;-56
2023/03/03 04:08:51;;;;;;;172.90;49.40;;;;;;;;;;5039275;28;20156;-56
2023/03/03 04:11:21;;;;;;;151.13;47.40;;;;;;;;;;5038106;28;20123;-58
2023/03/03 04:13:48;;;;;;;170.45;50.92;;;;;;;;;;5037646;28;20049;-57
2023/03/03 04:16:15;;;;;;;157.55;48.88;;;;;;;;;;5038005;28;20029;-52
2023/03/03 04:18:42;;;;;;;144.38;47.72;;;;;;;;;;5034141;28;20136;-51
2023/03/03 04:21:13;;;;;;;159.93;48.95;;;;;;;;;;5022016;28;20072;-57
2023/03/03 04:23:40;;;;;;;169.88;51.38;;;;;;;;;;5036751;28;20087;-58
2023/03/03 04:26:07;;;;;;;162.55;51.15;;;;;;;;;;5041294;28;20152;-55
2023/03/03 04:28:34;;;;;;;168.60;50.92;;;;;;;;;;5036178;28;20041;-55
2023/03/03 04:31:01;;;;;;;174.00;53.50;;;;;;;;;;5035674;28;20136;-55
2023/03/03 04:33:29;;;;;;;165.68;49.72;;;;;;;;;;5048660;28;20542;-53
2023/03/03 04:35:56;;;;;;;172.93;50.58;;;;;;;;;;5039381;28;20136;-52
2023/03/03 04:38:23;;;;;;;169.35;52.65;;;;;;;;;;5036416;28;20079;-56
2023/03/03 04:40:50;;;;;;;168.02;52.40;;;;;;;;;;5017496;28;20542;-57
2023/03/03 04:43:17;;;;;;;186.48;51.80;;;;;;;;;;5038618;28;20082;-56
2023/03/03 04:45:43;;;;;;;181.95;54.28;;;;;;;;;;5036379;28;20536;-57
2023/03/03 04:48:10;;;;;;;192.45;55.08;;;;;;;;;;5035779;28;20573;-57
2023/03/03 04:50:37;;;;;;;284.40;61.15;;;;;;;;;;5037614;28;20406;-43
2023/03/03 04:53:03;;;;;;;168.10;51.40;;;;;;;;;;5053498;28;20148;-43
2023/03/03 04:55:30;;;;;;;183.88;53.28;;;;;;;;;;5037264;28;20060;-44
2023/03/03 04:57:57;;;;;;;175.40;50.30;;;;;;;;;;5037790;28;20041;-45
2023/03/03 05:00:23;;;;;;;169.43;52.55;;;;;;;;;;5040088;28;20041;-43
2023/03/03 05:02:50;;;;;;;156.32;51.10;;;;;;;;;;5037024;28;20456;-44
2023/03/03 05:05:17;;;;;;;168.82;52.15;;;;;;;;;;5033997;28;20513;-44
2023/03/03 05:07:43;;;;;;;162.00;50.95;;;;;;;;;;5037787;28;20037;-43
2023/03/03 05:10:10;;;;;;;191.13;53.92;;;;;;;;;;5038856;28;20053;-43
2023/03/03 05:12:36;;;;;;;182.38;54.67;;;;;;;;;;5039126;28;20041;-46
2023/03/03 05:15:03;;;;;;;193.32;53.70;;;;;;;;;;5036107;28;20068;-43
2023/03/03 05:17:30;;;;;;;146.25;48.95;;;;;;;;;;5039877;28;20402;-44
2023/03/03 05:19:56;;;;;;;172.32;51.92;;;;;;;;;;5039837;28;20128;-45
2023/03/03 05:22:23;;;;;;;192.70;53.22;;;;;;;;;;5034413;28;20052;-44
2023/03/03 05:24:50;;;;;;;163.77;52.53;;;;;;;;;;5037935;28;20042;-43
2023/03/03 05:27:16;;;;;;;180.18;53.88;;;;;;;;;;5042583;28;20129;-43
2023/03/03 05:29:43;;;;;;;197.38;54.10;;;;;;;;;;5041708;28;20041;-44
2023/03/03 05:32:09;;;;;;;171.32;52.75;;;;;;;;;;5044736;28;20057;-44
2023/03/03 05:34:36;;;;;;;162.20;51.92;;;;;;;;;;5040844;28;20124;-45
2023/03/03 05:37:05;;;;;;;226.57;59.38;;;;;;;;;;5041862;28;20051;-43
2023/03/03 05:39:32;;;;;;;166.18;52.95;;;;;;;;;;5041614;28;20111;-43
2023/03/03 05:41:59;;;;;;;186.60;55.35;;;;;;;;;;5043909;28;20118;-44
2023/03/03 05:44:26;;;;;;;217.82;59.70;;;;;;;;;;5039889;28;20037;-47
2023/03/03 05:46:52;;;;;;;198.90;55.78;;;;;;;;;;5040817;28;20038;-44
2023/03/03 05:49:19;;;;;;;186.25;54.90;;;;;;;;;;5041701;28;20583;-44
2023/03/03 05:51:45;;;;;;;195.02;51.92;;;;;;;;;;5043211;28;20919;-44
2023/03/03 05:54:12;;;;;;;164.60;49.67;;;;;;;;;;5040609;28;20049;-44
2023/03/03 05:56:38;;;;;;;181.95;50.60;;;;;;;;;;5040692;28;20049;-48
2023/03/03 05:59:05;;;;;;;166.15;48.90;;;;;;;;;;5043240;28;20156;-44
2023/03/03 06:01:32;;;;;;;133.68;45.50;;;;;;;;;;5043402;28;20044;-43
2023/03/03 06:03:58;;;;;;;141.13;45.80;;;;;;;;;;5040371;28;20048;-45
2023/03/03 06:06:25;;;;;;;153.85;47.40;;;;;;;;;;5044260;28;20039;-46
2023/03/03 06:08:52;;;;;;;148.93;49.47;;;;;;;;;;5040670;28;20518;-44
2023/03/03 06:11:22;;;;;;;162.35;49.50;;;;;;;;;;5038084;28;20038;-43
2023/03/03 06:13:48;;;;;;;185.63;52.10;;;;;;;;;;5042620;28;20052;-44
2023/03/03 06:16:15;;;;;;;157.88;48.95;;;;;;;;;;5042213;28;20067;-44
2023/03/03 06:18:41;;;;;;;158.05;50.63;;;;;;;;;;5041114;28;20049;-45
2023/03/03 06:21:08;;;;;;;164.90;49.40;;;;;;;;;;5038313;28;20037;-45
2023/03/03 06:23:34;;;;;;;151.73;51.47;;;;;;;;;;5042340;28;20048;-43
2023/03/03 06:26:01;;;;;;;149.40;50.67;;;;;;;;;;5042676;28;20034;-45
2023/03/03 06:28:27;;;;;;;158.73;48.30;;;;;;;;;;5041064;28;20045;-44
2023/03/03 06:30:54;;;;;;;177.73;52.22;;;;;;;;;;5039960;28;20474;-44
2023/03/03 06:33:21;;;;;;;145.63;50.50;;;;;;;;;;5039369;28;20517;-45
2023/03/03 06:35:48;;;;;;;152.50;48.97;;;;;;;;;;5040433;28;20045;-46
2023/03/03 06:38:14;;;;;;;163.35;48.85;;;;;;;;;;5036640;28;20113;-57
2023/03/03 06:40:41;;;;;;;142.15;50.70;;;;;;;;;;5034966;28;20764;-56
2023/03/03 06:43:08;;;;;;;165.75;50.35;;;;;;;;;;5039292;28;20095;-58
2023/03/03 06:45:34;;;;;;;178.02;53.70;;;;;;;;;;5038269;28;20052;-58
2023/03/03 06:48:01;;;;;;;150.43;49.65;;;;;;;;;;5041837;28;20056;-58
2023/03/03 06:50:28;;;;;;;147.80;50.08;;;;;;;;;;5036327;28;20037;-57
2023/03/03 06:53:03;;;;;;;173.02;53.38;;;;;;;;;;5038772;28;20046;-56
2023/03/03 06:55:30;;;;;;;156.45;51.97;;;;;;;;;;5040699;28;20064;-55
2023/03/03 06:57:57;;;;;;;184.88;53.95;;;;;;;;;;5039869;28;20037;-57
2023/03/03 07:00:25;;;;;;;174.52;55.90;;;;;;;;;;5037365;28;20275;-57
2023/03/03 07:02:58;;;;;;;152.95;52.08;;;;;;;;;;5038279;28;20044;-57
2023/03/03 07:05:27;;;;;;;169.88;54.80;;;;;;;;;;5041497;28;20037;-54
2023/03/03 07:07:55;;;;;;;171.40;55.15;;;;;;;;;;5039411;28;20042;-58
2023/03/03 07:10:28;;;;;;;176.35;56.38;;;;;;;;;;5040769;28;20058;-59
2023/03/03 07:13:00;;;;;;;173.45;56.50;;;;;;;;;;5038644;28;20095;-57
2023/03/03 07:15:33;;;;;;;148.45;51.65;;;;;;;;;;5041860;28;20073;-55
2023/03/03 07:18:01;;;;;;;188.55;54.13;;;;;;;;;;5035017;28;20051;-59
2023/03/03 07:20:38;;;;;;;156.30;50.60;;;;;;;;;;5041963;28;20051;-57
2023/03/03 07:23:16;;;;;;;155.13;50.30;;;;;;;;;;5041387;28;20345;-57
2023/03/03 07:25:45;;;;;;;168.20;52.47;;;;;;;;;;5040061;28;20106;-59
2023/03/03 07:28:11;;;;;;;179.43;55.00;;;;;;;;;;5038950;28;20044;-58
2023/03/03 07:30:39;;;;;;;167.32;51.67;;;;;;;;;;5042636;28;20053;-55
2023/03/03 07:33:14;;;;;;;156.38;54.70;;;;;;;;;;5041515;28;20043;-59
2023/03/03 07:35:42;;;;;;;150.50;49.78;;;;;;;;;;5039781;28;20531;-59
2023/03/03 07:38:29;;;;;;;169.75;49.60;;;;;;;;;;5041181;28;20084;-57
2023/03/03 07:40:57;;;;;;;131.38;46.33;;;;;;;;;;5037282;28;20077;-55
2023/03/03 07:43:34;;;;;;;148.13;49.80;;;;;;;;;;5040325;28;20052;-57
2023/03/03 07:46:16;;;;;;;149.45;49.83;;;;;;;;;;5039483;28;20128;-57
2023/03/03 07:48:43;;;;;;;135.90;46.38;;;;;;;;;;5039457;28;20402;-56
2023/03/03 07:51:26;;;;;;;139.15;46.65;;;;;;;;;;5036720;28;20517;-55
2023/03/03 07:53:59;;;;;;;134.30;43.85;;;;;;;;;;5037454;28;20425;-55
2023/03/03 07:56:27;;;;;;;109.47;39.90;;;;;;;;;;5039386;28;20491;-52
2023/03/03 07:58:55;;;;;;;136.15;40.75;;;;;;;;;;5039462;28;20045;-59
2023/03/03 08:01:27;;;;;;;126.60;41.17;;;;;;;;;;5035682;28;20738;-58
2023/03/03 08:03:54;;;;;;;128.63;42.60;;;;;;;;;;5040705;28;20041;-55
2023/03/03 08:06:39;;;;;;;142.43;42.55;;;;;;;;;;5039237;28;20092;-56
2023/03/03 08:09:09;;;;;;;121.05;39.65;;;;;;;;;;5033881;28;20127;-58
2023/03/03 08:11:46;;;;;;;123.22;40.88;;;;;;;;;;5040483;28;20038;-58
2023/03/03 08:14:14;;;;;;;109.40;36.25;;;;;;;;;;5032014;28;20045;-56
2023/03/03 08:16:41;;;;;;;120.72;41.40;;;;;;;;;;5037757;28;20064;-60
2023/03/03 08:19:10;;;;;;;154.50;40.35;;;;;;;;;;5038749;28;20045;-59
2023/03/03 08:21:36;;;;;;;107.05;38.42;;;;;;;;;;5040298;28;20037;-58
2023/03/03 08:24:03;;;;;;;94.47;33.80;;;;;;;;;;5039327;28;20045;-60
2023/03/03 08:26:30;;;;;;;128.60;38.88;;;;;;;;;;5041880;28;20516;-57
2023/03/03 08:28:56;;;;;;;99.20;37.40;;;;;;;;;;5039449;28;20052;-56
2023/03/03 08:31:23;;;;;;;104.82;35.10;;;;;;;;;;5039507;28;20495;-55
2023/03/03 08:34:05;;;;;;;118.90;37.07;;;;;;;;;;5036333;28;20045;-56
2023/03/03 08:36:32;;;;;;;102.68;34.97;;;;;;;;;;5039696;28;20715;-54
2023/03/03 08:39:00;;;;;;;127.25;36.42;;;;;;;;;;5039924;28;20059;-54
2023/03/03 08:41:26;;;;;;;94.78;34.33;;;;;;;;;;5035104;28;20079;-56
2023/03/03 08:43:53;;;;;;;119.88;37.50;;;;;;;;;;5040549;28;20398;-55
2023/03/03 08:46:19;;;;;;;129.15;40.33;;;;;;;;;;5036815;28;20045;-57
2023/03/03 08:48:46;;;;;;;123.35;36.70;;;;;;;;;;5039160;28;20042;-56
2023/03/03 08:51:12;;;;;;;110.00;35.92;;;;;;;;;;5038131;28;20047;-55
2023/03/03 08:53:39;;;;;;;112.40;36.22;;;;;;;;;;5036564;28;20041;-57
2023/03/03 08:56:06;;;;;;;110.40;36.88;;;;;;;;;;5040815;28;20050;-57
2023/03/03 08:58:32;;;;;;;109.93;34.85;;;;;;;;;;5039675;28;20043;-57
2023/03/03 09:01:01;;;;;;;138.40;38.58;;;;;;;;;;5037555;28;20146;-58
2023/03/03 09:03:28;;;;;;;100.05;35.95;;;;;;;;;;5039056;28;20041;-59
2023/03/03 09:05:55;;;;;;;96.47;33.10;;;;;;;;;;5038235;28;20615;-59
2023/03/03 09:08:22;;;;;;;124.15;34.08;;;;;;;;;;5050113;28;20117;-58
2023/03/03 09:10:48;;;;;;;98.25;31.88;;;;;;;;;;5040518;28;20072;-57
2023/03/03 09:13:16;;;;;;;108.57;34.70;;;;;;;;;;5035293;28;20049;-56
2023/03/03 09:15:42;;;;;;;117.78;34.63;;;;;;;;;;5037128;28;20041;-54
2023/03/03 09:18:29;;;;;;;105.72;33.70;;;;;;;;;;5039677;28;20037;-56
2023/03/03 09:20:56;;;;;;;91.35;27.83;;;;;;;;;;5036392;28;20044;-59
2023/03/03 09:23:23;;;;;;;94.75;30.13;;;;;;;;;;5038408;28;20048;-61
2023/03/03 09:25:50;;;;;;;84.13;30.95;;;;;;;;;;5037505;28;20037;-59
2023/03/03 09:28:24;;;;;;;101.20;31.95;;;;;;;;;;5038565;28;20044;-61
2023/03/03 09:30:51;;;;;;;90.40;31.17;;;;;;;;;;5038409;28;20056;-60
2023/03/03 09:33:21;;;;;;;111.72;33.88;;;;;;;;;;5041834;28;20051;-59
2023/03/03 09:35:49;;;;;;;129.27;36.67;;;;;;;;;;5029429;28;20052;-43
2023/03/03 09:38:32;;;;;;;107.30;32.97;;;;;;;;;;5033045;28;20126;-44
2023/03/03 09:41:04;;;;;;;106.20;33.10;;;;;;;;;;5034514;28;20085;-43
2023/03/03 09:43:49;;;;;;;88.97;29.83;;;;;;;;;;5038313;28;20087;-42
2023/03/03 09:46:18;;;;;;;130.13;34.55;;;;;;;;;;5036371;28;20365;-43
2023/03/03 09:49:10;;;;;;;113.88;33.50;;;;;;;;;;5036185;28;20081;-44
2023/03/03 09:51:54;;;;;;;108.97;33.88;;;;;;;;;;5036777;28;20103;-44
2023/03/03 09:54:59;;;;;;;127.80;36.50;;;;;;;;;;5050071;28;20540;-42
2023/03/03 09:57:32;;;;;;;90.80;32.25;;;;;;;;;;5005715;28;20169;-42
2023/03/03 10:00:18;;;;;;;110.18;32.95;;;;;;;;;;5004455;28;20100;-42
2023/03/03 10:02:48;;;;;;;96.47;30.27;;;;;;;;;;5004393;28;20435;-42
2023/03/03 10:05:37;;;;;;;124.90;33.63;;;;;;;;;;5004221;28;20061;-42
2023/03/03 10:08:22;;;;;;;107.38;32.92;;;;;;;;;;5004844;28;20058;-43
2023/03/03 10:10:52;;;;;;;104.85;33.80;;;;;;;;;;5005257;28;20046;-42
2023/03/03 10:13:37;;;;;;;111.07;32.80;;;;;;;;;;5008582;28;20041;-43
2023/03/03 10:16:16;;;;;;;103.38;32.88;;;;;;;;;;5008495;28;20053;-43
2023/03/03 10:18:55;;;;;;;96.60;32.85;;;;;;;;;;5009547;28;20049;-43
2023/03/03 10:21:28;;;;;;;97.18;33.08;;;;;;;;;;5008907;28;20458;-42
2023/03/03 10:23:55;;;;;;;103.60;34.42;;;;;;;;;;5008290;28;20045;-42
2023/03/03 10:26:24;;;;;;;103.75;32.53;;;;;;;;;;5008001;28;20935;-42
2023/03/03 10:29:29;;;;;;;93.30;30.33;;;;;;;;;;5028660;28;20049;-43
2023/03/03 10:32:05;;;;;;;101.55;32.55;;;;;;;;;;5035745;28;20045;-46
2023/03/03 10:34:38;;;;;;;94.25;33.75;;;;;;;;;;5041441;28;20037;-45
2023/03/03 10:37:25;;;;;;;120.73;32.77;;;;;;;;;;5037478;28;20041;-43
2023/03/03 10:40:00;;;;;;;130.32;36.30;;;;;;;;;;5035861;28;20679;-43
2023/03/03 10:42:33;;;;;;;97.55;32.65;;;;;;;;;;5039414;28;20490;-59
2023/03/03 10:45:34;;;;;;;73.20;32.33;;;;;;;;;;5032042;28;20525;-59
2023/03/03 10:48:09;;;;;;;99.78;33.78;;;;;;;;;;5038949;28;20069;-59
2023/03/03 10:50:49;;;;;;;94.70;32.63;;;;;;;;;;5035594;28;20058;-59
2023/03/03 10:53:16;;;;;;;112.05;35.58;;;;;;;;;;5035375;28;20470;-61
2023/03/03 10:56:01;;;;;;;123.35;37.40;;;;;;;;;;5041057;28;20041;-60
2023/03/03 10:58:33;;;;;;;92.07;33.33;;;;;;;;;;5036993;28;20815;-61
2023/03/03 11:01:07;;;;;;;118.40;38.00;;;;;;;;;;5036613;28;20087;-60
2023/03/03 11:03:54;;;;;;;103.82;36.75;;;;;;;;;;5037018;28;20141;-60
2023/03/03 11:06:42;;;;;;;119.47;36.65;;;;;;;;;;5039832;28;20053;-60
2023/03/03 11:09:14;;;;;;;105.45;37.95;;;;;;;;;;5037321;28;20053;-61
2023/03/03 11:12:07;;;;;;;98.80;34.53;;;;;;;;;;5022197;28;20041;-61
2023/03/03 11:14:47;;;;;;;116.63;39.10;;;;;;;;;;5018945;28;20083;-61
2023/03/03 11:17:46;;;;;;;97.35;34.83;;;;;;;;;;5037561;28;20057;-61
2023/03/03 11:20:28;;;;;;;120.72;37.95;;;;;;;;;;5040785;28;20037;-60
2023/03/03 11:22:58;;;;;;;107.93;36.35;;;;;;;;;;5033782;28;20053;-58
2023/03/03 11:25:39;;;;;;;94.20;36.42;;;;;;;;;;5019677;28;20052;-61
2023/03/03 11:28:05;;;;;;;120.93;40.35;;;;;;;;;;5017107;28;20041;-61
2023/03/03 11:30:50;;;;;;;123.50;40.78;;;;;;;;;;5022082;28;20117;-58
2023/03/03 11:33:17;;;;;;;116.13;41.97;;;;;;;;;;5020086;28;20053;-57
2023/03/03 11:35:47;;;;;;;131.32;40.30;;;;;;;;;;5020067;28;20046;-58
2023/03/03 11:38:16;;;;;;;115.95;36.08;;;;;;;;;;5021643;28;20038;-58
2023/03/03 11:40:49;;;;;;;99.78;34.42;;;;;;;;;;5014828;28;20030;-60
2023/03/03 11:43:20;;;;;;;87.75;29.80;;;;;;;;;;5019672;28;20041;-61
2023/03/03 11:46:10;;;;;;;90.72;29.95;;;;;;;;;;5021624;28;20137;-59
2023/03/03 11:48:46;;;;;;;88.78;31.10;;;;;;;;;;5018337;28;20049;-59
2023/03/03 11:51:17;;;;;;;87.97;29.00;;;;;;;;;;5016401;28;20056;-60
2023/03/03 11:53:50;;;;;;;106.70;32.10;;;;;;;;;;5018341;28;20470;-58
2023/03/03 11:56:19;;;;;;;105.35;30.40;;;;;;;;;;5018975;28;20554;-62
2023/03/03 11:58:51;;;;;;;112.45;33.83;;;;;;;;;;5018519;28;20056;-61
2023/03/03 12:01:23;;;;;;;89.93;29.95;;;;;;;;;;5018314;28;23174;-57
2023/03/03 12:03:52;;;;;;;75.80;25.08;;;;;;;;;;5020199;28;20042;-59
2023/03/03 12:06:39;;;;;;;104.57;29.10;;;;;;;;;;5017700;28;20045;-61
2023/03/03 12:09:05;;;;;;;76.80;27.90;;;;;;;;;;5018502;28;20528;-60
2023/03/03 12:11:50;;;;;;;158.57;48.65;;;;;;;;;;5039729;28;20033;-61
2023/03/03 12:14:34;;;;;;;103.15;30.88;;;;;;;;;;5037403;28;20045;-57
2023/03/03 12:17:03;;;;;;;82.32;27.80;;;;;;;;;;5039871;28;20043;-59
2023/03/03 12:19:30;;;;;;;68.28;25.15;;;;;;;;;;5039270;28;20041;-61
2023/03/03 12:21:56;;;;;;;90.00;28.02;;;;;;;;;;5040067;28;20120;-60
2023/03/03 12:24:25;;;;;;;75.60;24.88;;;;;;;;;;5036340;28;20041;-62
2023/03/03 12:27:04;;;;;;;92.13;27.02;;;;;;;;;;5038751;28;20046;-58
2023/03/03 12:29:45;;;;;;;83.57;25.58;;;;;;;;;;5037212;28;20047;-57
2023/03/03 12:32:20;;;;;;;103.78;31.25;;;;;;;;;;5033950;28;20072;-61
2023/03/03 12:34:53;;;;;;;82.88;26.88;;;;;;;;;;5041003;28;20045;-61
2023/03/03 12:37:31;;;;;;;84.50;26.10;;;;;;;;;;5038351;28;20049;-61
2023/03/03 12:40:18;;;;;;;327.17;58.05;;;;;;;;;;5033592;28;20107;-61
2023/03/03 12:43:04;;;;;;;75.78;24.92;;;;;;;;;;5035932;28;20045;-57
2023/03/03 12:45:37;;;;;;;72.13;24.20;;;;;;;;;;5039966;28;20044;-61
2023/03/03 12:48:22;;;;;;;84.40;27.85;;;;;;;;;;5039842;28;20041;-60
2023/03/03 12:50:54;;;;;;;103.75;30.30;;;;;;;;;;5036185;28;20072;-57
2023/03/03 12:53:32;;;;;;;94.23;29.57;;;;;;;;;;5036341;28;20044;-60
2023/03/03 12:56:05;;;;;;;91.53;28.02;;;;;;;;;;5038220;28;20119;-60
2023/03/03 12:58:49;;;;;;;84.82;29.38;;;;;;;;;;5037390;28;20048;-57
2023/03/03 13:01:19;;;;;;;104.88;30.05;;;;;;;;;;5038156;28;20119;-61
2023/03/03 13:04:03;;;;;;;104.65;32.47;;;;;;;;;;5037169;28;20045;-58
2023/03/03 13:06:39;;;;;;;87.82;31.58;;;;;;;;;;5054948;28;20045;-58
2023/03/03 13:09:06;;;;;;;85.07;29.98;;;;;;;;;;5040513;28;20132;-61
2023/03/03 13:11:38;;;;;;;89.15;28.00;;;;;;;;;;5039249;28;20432;-61
2023/03/03 13:14:25;;;;;;;87.43;27.38;;;;;;;;;;5035885;28;20050;-59
2023/03/03 13:16:59;;;;;;;91.18;28.52;;;;;;;;;;5035747;28;20417;-43
2023/03/03 13:19:29;;;;;;;92.00;30.60;;;;;;;;;;5036306;28;20112;-46
2023/03/03 13:22:01;;;;;;;95.57;28.25;;;;;;;;;;5038914;28;20501;-44
2023/03/03 13:24:32;;;;;;;84.00;27.15;;;;;;;;;;5035195;28;20402;-43
2023/03/03 13:26:58;;;;;;;85.70;28.35;;;;;;;;;;5040687;28;20524;-43
2023/03/03 13:29:44;;;;;;;109.15;30.25;;;;;;;;;;5038320;28;20049;-44
2023/03/03 13:32:15;;;;;;;126.22;38.28;;;;;;;;;;5033696;28;20116;-45
2023/03/03 13:34:54;;;;;;;114.85;32.65;;;;;;;;;;5037118;28;20123;-43
2023/03/03 13:37:40;;;;;;;100.72;30.50;;;;;;;;;;5037690;28;20078;-45
2023/03/03 13:40:13;;;;;;;126.07;33.55;;;;;;;;;;5039451;28;20399;-46
2023/03/03 13:42:42;;;;;;;97.55;30.27;;;;;;;;;;5049498;28;20054;-44
2023/03/03 13:45:14;;;;;;;111.28;32.08;;;;;;;;;;5038753;28;20052;-43
2023/03/03 13:47:51;;;;;;;98.40;31.05;;;;;;;;;;5035675;28;20528;-44
2023/03/03 13:50:21;;;;;;;131.43;33.10;;;;;;;;;;5043702;28;20045;-44
2023/03/03 13:52:50;;;;;;;108.80;30.85;;;;;;;;;;5042144;28;20139;-43
2023/03/03 13:55:27;;;;;;;95.85;32.13;;;;;;;;;;5041852;28;20053;-44
2023/03/03 13:58:02;;;;;;;108.93;32.80;;;;;;;;;;5040323;28;20060;-44
2023/03/03 14:00:29;;;;;;;94.05;31.80;;;;;;;;;;5043597;28;20147;-44
2023/03/03 14:02:56;;;;;;;98.70;29.30;;;;;;;;;;5042014;28;20067;-45
2023/03/03 14:05:34;;;;;;;90.28;31.20;;;;;;;;;;5041552;28;20425;-44
2023/03/03 14:08:06;;;;;;;88.82;30.73;;;;;;;;;;5039139;28;20082;-43
2023/03/03 14:10:36;;;;;;;101.57;30.10;;;;;;;;;;5038988;28;20104;-46
2023/03/03 14:13:18;;;;;;;103.40;28.77;;;;;;;;;;5036998;28;20038;-45
2023/03/03 14:15:57;;;;;;;99.88;30.00;;;;;;;;;;5037050;28;20056;-43
2023/03/03 14:18:32;;;;;;;118.45;31.13;;;;;;;;;;5034860;28;20054;-60
2023/03/03 14:21:03;;;;;;;104.28;32.58;;;;;;;;;;5036663;28;20051;-59
2023/03/03 14:23:30;;;;;;;86.88;29.92;;;;;;;;;;5039096;28;20041;-61
2023/03/03 14:26:02;;;;;;;77.40;28.80;;;;;;;;;;5040767;28;20037;-60
2023/03/03 14:28:36;;;;;;;79.77;27.60;;;;;;;;;;5040771;28;20038;-60
2023/03/03 14:31:26;;;;;;;106.20;31.80;;;;;;;;;;5036682;28;20051;-56